createdAt,value
2018-01-01T00:00:03.491Z,78.8
2018-01-01T00:01:04.846Z,79.3
2018-01-01T00:02:06.218Z,78.8
2018-01-01T00:03:07.581Z,79.0
2018-01-01T00:04:08.976Z,78.7
2018-01-01T00:05:10.341Z,78.7
2018-01-01T00:06:11.704Z,79.7
2018-01-01T00:07:13.085Z,79.1
2018-01-01T00:08:14.453Z,79.2
2018-01-01T00:09:15.819Z,79.2
2018-01-01T00:10:17.193Z,79.1
2018-01-01T00:11:18.550Z,78.7
2018-01-01T00:12:19.917Z,78.8
2018-01-01T00:13:21.285Z,79.1
2018-01-01T00:14:22.647Z,79.2
2018-01-01T00:15:24.022Z,79.3
2018-01-01T00:16:25.377Z,79.4
2018-01-01T00:17:26.739Z,79.6
2018-01-01T00:18:28.097Z,79.7
2018-01-01T00:19:29.459Z,80.1
2018-01-01T00:20:30.824Z,79.7
2018-01-01T00:21:32.194Z,80.2
2018-01-01T00:22:33.555Z,80.6
2018-01-01T00:23:34.923Z,80.3
2018-01-01T00:24:36.287Z,80.5
2018-01-01T00:25:37.646Z,80.8
2018-01-01T00:26:39.024Z,81.2
2018-01-01T00:27:40.391Z,81.6
2018-01-01T00:28:41.758Z,81.4
2018-01-01T00:29:43.122Z,81.4
2018-01-01T00:30:44.496Z,81.1
2018-01-01T00:31:45.862Z,81.3
2018-01-01T00:32:47.275Z,81.3
2018-01-01T00:33:48.639Z,81.5
2018-01-01T00:34:50.010Z,81.3
2018-01-01T00:35:51.365Z,82.7
2018-01-01T00:36:52.738Z,82.2
2018-01-01T00:37:54.100Z,82.2
2018-01-01T00:38:55.604Z,82.8
2018-01-01T00:39:56.961Z,82.9
2018-01-01T00:40:58.333Z,82.7
2018-01-01T00:41:59.696Z,83.0
2018-01-01T00:43:01.060Z,82.7
2018-01-01T00:44:02.485Z,83.1
2018-01-01T00:45:03.841Z,83.2
2018-01-01T00:46:05.197Z,84.0
2018-01-01T00:47:06.559Z,83.6
2018-01-01T00:48:07.966Z,84.0
2018-01-01T00:49:09.332Z,84.3
2018-01-01T00:50:10.705Z,84.4
2018-01-01T00:51:12.063Z,84.7
2018-01-01T00:52:13.432Z,84.8
2018-01-01T00:53:14.795Z,84.5
2018-01-01T00:54:16.170Z,85.2
2018-01-01T00:55:17.521Z,84.9
2018-01-01T00:56:18.887Z,85.1
2018-01-01T00:57:20.246Z,85.3
2018-01-01T00:58:21.609Z,85.4
2018-01-01T00:59:22.973Z,85.5
2018-01-01T01:00:24.333Z,85.4
2018-01-01T01:01:25.695Z,85.5
2018-01-01T01:02:29.751Z,85.5
2018-01-01T01:03:31.125Z,85.6
2018-01-01T01:04:32.483Z,86.5
2018-01-01T01:05:33.850Z,86.1
2018-01-01T01:06:35.210Z,86.2
2018-01-01T01:07:36.568Z,86.2
2018-01-01T01:08:37.930Z,86.5
2018-01-01T01:09:39.300Z,86.5
2018-01-01T01:10:40.661Z,86.5
2018-01-01T01:11:42.022Z,86.6
2018-01-01T01:12:43.381Z,86.7
2018-01-01T01:13:44.738Z,86.5
2018-01-01T01:14:46.095Z,86.9
2018-01-01T01:15:47.462Z,87.1
2018-01-01T01:16:48.882Z,86.7
2018-01-01T01:17:50.244Z,86.5
2018-01-01T01:18:51.615Z,86.5
2018-01-01T01:19:52.975Z,86.6
2018-01-01T01:20:54.333Z,86.7
2018-01-01T01:21:55.693Z,86.5
2018-01-01T01:22:57.054Z,86.6
2018-01-01T01:23:58.415Z,86.7
2018-01-01T01:24:59.783Z,86.4
2018-01-01T01:26:01.149Z,86.7
2018-01-01T01:27:03.362Z,86.6
2018-01-01T01:28:04.775Z,86.7
2018-01-01T01:29:06.131Z,87.5
2018-01-01T01:30:07.524Z,86.6
2018-01-01T01:31:08.883Z,87.5
2018-01-01T01:32:10.250Z,86.9
2018-01-01T01:33:11.611Z,86.7
2018-01-01T01:34:12.972Z,86.9
2018-01-01T01:35:14.327Z,86.9
2018-01-01T01:36:15.685Z,86.7
2018-01-01T01:37:17.061Z,86.7
2018-01-01T01:38:18.441Z,86.6
2018-01-01T01:39:19.803Z,86.7
2018-01-01T01:40:21.161Z,86.6
2018-01-01T01:41:22.523Z,86.4
2018-01-01T01:42:23.878Z,86.2
2018-01-01T01:43:25.235Z,86.1
2018-01-01T01:44:26.602Z,86.3
2018-01-01T01:45:27.957Z,86.3
2018-01-01T01:46:29.321Z,86.1
2018-01-01T01:47:30.690Z,86.0
2018-01-01T01:48:32.919Z,86.1
2018-01-01T01:49:33.373Z,86.0
2018-01-01T01:50:34.743Z,85.9
2018-01-01T01:51:36.103Z,85.5
2018-01-01T01:52:37.455Z,85.6
2018-01-01T01:53:38.816Z,86.3
2018-01-01T01:54:40.184Z,85.6
2018-01-01T01:55:41.541Z,85.9
2018-01-01T01:56:42.909Z,85.7
2018-01-01T01:57:44.264Z,85.4
2018-01-01T01:58:45.624Z,85.6
2018-01-01T01:59:46.987Z,86.0
2018-01-01T02:00:48.345Z,86.1
2018-01-01T02:01:49.702Z,85.6
2018-01-01T02:02:51.064Z,85.2
2018-01-01T02:03:52.419Z,85.7
2018-01-01T02:04:53.794Z,85.5
2018-01-01T02:05:55.139Z,85.5
2018-01-01T02:06:56.498Z,85.4
2018-01-01T02:07:57.884Z,85.7
2018-01-01T02:08:59.228Z,85.2
2018-01-01T02:10:00.591Z,85.3
2018-01-01T02:11:01.973Z,85.6
2018-01-01T02:12:03.324Z,85.5
2018-01-01T02:13:04.692Z,85.6
2018-01-01T02:14:06.047Z,85.4
2018-01-01T02:15:07.409Z,84.8
2018-01-01T02:16:08.777Z,85.5
2018-01-01T02:17:10.138Z,85.3
2018-01-01T02:18:11.489Z,85.6
2018-01-01T02:19:12.852Z,85.5
2018-01-01T02:20:14.254Z,85.6
2018-01-01T02:21:15.632Z,85.6
2018-01-01T02:22:17.043Z,85.4
2018-01-01T02:23:18.411Z,84.8
2018-01-01T02:24:19.827Z,85.0
2018-01-01T02:25:21.181Z,84.9
2018-01-01T02:26:22.564Z,85.1
2018-01-01T02:27:23.962Z,85.1
2018-01-01T02:28:25.381Z,85.2
2018-01-01T02:29:26.836Z,85.2
2018-01-01T02:30:28.272Z,85.4
2018-01-01T02:31:29.700Z,84.8
2018-01-01T02:32:31.100Z,85.2
2018-01-01T02:33:33.559Z,85.4
2018-01-01T02:34:34.915Z,85.6
2018-01-01T02:35:36.276Z,85.1
2018-01-01T02:36:37.637Z,85.3
2018-01-01T02:37:39.004Z,84.9
2018-01-01T02:38:40.375Z,85.2
2018-01-01T02:39:41.736Z,85.0
2018-01-01T02:40:43.131Z,85.5
2018-01-01T02:41:44.574Z,85.4
2018-01-01T02:42:45.965Z,85.4
2018-01-01T02:43:47.323Z,85.2
2018-01-01T02:44:48.693Z,85.5
2018-01-01T02:45:50.086Z,85.0
2018-01-01T02:46:51.518Z,85.6
2018-01-01T02:47:52.929Z,85.5
2018-01-01T02:48:54.412Z,85.1
2018-01-01T02:49:55.812Z,85.6
2018-01-01T02:50:57.255Z,85.4
2018-01-01T02:51:58.649Z,84.8
2018-01-01T02:53:00.058Z,84.9
2018-01-01T02:54:01.494Z,85.4
2018-01-01T02:55:02.880Z,85.1
2018-01-01T02:56:04.348Z,85.4
2018-01-01T02:57:05.743Z,85.4
2018-01-01T02:58:07.296Z,85.5
2018-01-01T02:59:08.686Z,85.5
2018-01-01T03:00:10.086Z,85.1
2018-01-01T03:01:11.501Z,85.3
2018-01-01T03:02:13.020Z,85.7
2018-01-01T03:03:14.469Z,86.1
2018-01-01T03:04:15.914Z,85.6
2018-01-01T03:05:17.330Z,85.5
2018-01-01T03:06:18.749Z,85.2
2018-01-01T03:07:20.193Z,85.2
2018-01-01T03:08:21.623Z,85.1
2018-01-01T03:09:23.096Z,85.3
2018-01-01T03:10:24.545Z,85.1
2018-01-01T03:11:26.021Z,85.5
2018-01-01T03:12:27.503Z,85.6
2018-01-01T03:13:28.993Z,86.2
2018-01-01T03:14:30.418Z,85.6
2018-01-01T03:15:31.813Z,86.2
2018-01-01T03:16:33.291Z,85.9
2018-01-01T03:17:34.686Z,85.7
2018-01-01T03:18:36.168Z,86.6
2018-01-01T03:19:37.597Z,85.2
2018-01-01T03:20:39.037Z,85.3
2018-01-01T03:21:40.489Z,85.5
2018-01-01T03:22:41.935Z,85.8
2018-01-01T03:23:43.439Z,85.7
2018-01-01T03:24:44.835Z,85.2
2018-01-01T03:25:46.253Z,85.7
2018-01-01T03:26:47.698Z,86.3
2018-01-01T03:27:49.150Z,86.1
2018-01-01T03:28:50.625Z,86.7
2018-01-01T03:29:52.041Z,86.6
2018-01-01T03:30:53.530Z,86.7
2018-01-01T03:31:54.939Z,87.1
2018-01-01T03:32:56.426Z,87.0
2018-01-01T03:33:57.827Z,87.6
2018-01-01T03:34:59.292Z,87.4
2018-01-01T03:36:00.692Z,87.7
2018-01-01T03:37:02.150Z,88.1
2018-01-01T03:38:03.566Z,88.2
2018-01-01T03:39:04.993Z,88.2
2018-01-01T03:40:06.423Z,88.4
2018-01-01T03:41:07.834Z,88.1
2018-01-01T03:42:09.262Z,88.8
2018-01-01T03:43:10.698Z,88.3
2018-01-01T03:44:12.096Z,88.3
2018-01-01T03:45:13.484Z,88.0
2018-01-01T03:46:14.886Z,88.2
2018-01-01T03:47:16.291Z,87.8
2018-01-01T03:48:17.712Z,87.5
2018-01-01T03:49:19.147Z,87.3
2018-01-01T03:50:20.546Z,87.7
2018-01-01T03:51:21.960Z,87.5
2018-01-01T03:52:23.350Z,87.6
2018-01-01T03:53:24.694Z,86.7
2018-01-01T03:54:26.048Z,86.3
2018-01-01T03:55:27.414Z,86.2
2018-01-01T03:56:28.777Z,85.4
2018-01-01T03:57:30.151Z,85.4
2018-01-01T03:58:31.506Z,85.7
2018-01-01T03:59:33.941Z,85.2
2018-01-01T04:00:35.279Z,85.5
2018-01-01T04:01:36.699Z,84.5
2018-01-01T04:02:38.075Z,84.4
2018-01-01T04:03:39.484Z,84.3
2018-01-01T04:04:40.880Z,84.0
2018-01-01T04:05:42.336Z,83.6
2018-01-01T04:06:43.696Z,83.8
2018-01-01T04:07:45.113Z,82.7
2018-01-01T04:08:46.419Z,82.6
2018-01-01T04:09:47.782Z,82.1
2018-01-01T04:10:49.144Z,81.5
2018-01-01T04:11:50.505Z,81.1
2018-01-01T04:12:51.864Z,81.2
2018-01-01T04:13:53.228Z,80.8
2018-01-01T04:14:54.579Z,80.9
2018-01-01T04:15:55.936Z,81.0
2018-01-01T04:16:57.306Z,81.0
2018-01-01T04:17:58.665Z,80.9
2018-01-01T04:19:00.023Z,80.9
2018-01-01T04:20:01.374Z,81.2
2018-01-01T04:21:02.738Z,81.1
2018-01-01T04:22:04.102Z,81.1
2018-01-01T04:23:05.465Z,81.3
2018-01-01T04:24:06.826Z,81.5
2018-01-01T04:25:08.190Z,81.3
2018-01-01T04:26:09.553Z,81.6
2018-01-01T04:27:10.916Z,82.1
2018-01-01T04:28:12.273Z,82.6
2018-01-01T04:29:13.630Z,82.6
2018-01-01T04:30:14.993Z,83.0
2018-01-01T04:31:16.346Z,84.2
2018-01-01T04:32:17.712Z,83.9
2018-01-01T04:33:19.071Z,84.8
2018-01-01T04:34:20.427Z,85.9
2018-01-01T04:35:21.787Z,86.7
2018-01-01T04:36:23.143Z,87.4
2018-01-01T04:37:24.501Z,86.9
2018-01-01T04:38:25.868Z,87.5
2018-01-01T04:39:27.231Z,87.9
2018-01-01T04:40:28.587Z,88.8
2018-01-01T04:41:29.945Z,88.1
2018-01-01T04:42:31.318Z,88.3
2018-01-01T04:43:32.675Z,88.6
2018-01-01T04:44:34.031Z,89.4
2018-01-01T04:45:35.388Z,89.3
2018-01-01T04:46:36.751Z,89.7
2018-01-01T04:47:38.106Z,90.9
2018-01-01T04:48:39.463Z,91.1
2018-01-01T04:49:40.820Z,90.7
2018-01-01T04:50:42.182Z,92.5
2018-01-01T04:51:43.532Z,92.7
2018-01-01T04:52:44.896Z,93.0
2018-01-01T04:53:46.248Z,92.0
2018-01-01T04:54:47.609Z,92.6
2018-01-01T04:55:48.963Z,92.7
2018-01-01T04:56:50.316Z,93.0
2018-01-01T04:57:51.671Z,93.5
2018-01-01T04:58:53.026Z,93.0
2018-01-01T04:59:54.398Z,92.7
2018-01-01T05:00:55.762Z,93.5
2018-01-01T05:01:57.120Z,93.6
2018-01-01T05:02:58.482Z,93.5
2018-01-01T05:03:59.842Z,94.3
2018-01-01T05:05:01.193Z,94.8
2018-01-01T05:06:02.557Z,95.4
2018-01-01T05:07:03.912Z,96.1
2018-01-01T05:08:05.271Z,95.3
2018-01-01T05:09:06.627Z,96.2
2018-01-01T05:10:08.006Z,96.1
2018-01-01T05:11:09.359Z,96.7
2018-01-01T05:12:10.725Z,96.5
2018-01-01T05:13:12.078Z,96.8
2018-01-01T05:14:13.436Z,97.0
2018-01-01T05:15:14.798Z,96.5
2018-01-01T05:16:16.152Z,96.1
2018-01-01T05:17:17.508Z,96.5
2018-01-01T05:18:18.890Z,97.1
2018-01-01T05:19:20.246Z,96.6
2018-01-01T05:20:21.596Z,97.5
2018-01-01T05:21:22.951Z,97.8
2018-01-01T05:22:24.311Z,97.2
2018-01-01T05:23:25.669Z,96.8
2018-01-01T05:24:27.015Z,96.6
2018-01-01T05:25:28.374Z,97.2
2018-01-01T05:26:29.734Z,97.0
2018-01-01T05:27:31.099Z,96.7
2018-01-01T05:28:32.450Z,96.6
2018-01-01T05:29:33.804Z,95.5
2018-01-01T05:30:35.165Z,95.6
2018-01-01T05:31:36.521Z,96.9
2018-01-01T05:32:37.876Z,97.1
2018-01-01T05:33:39.235Z,96.9
2018-01-01T05:34:40.590Z,96.0
2018-01-01T05:35:41.947Z,95.9
2018-01-01T05:36:43.306Z,96.9
2018-01-01T05:37:44.658Z,96.6
2018-01-01T05:38:46.015Z,97.0
2018-01-01T05:39:47.363Z,97.7
2018-01-01T05:40:48.724Z,96.8
2018-01-01T05:41:50.078Z,96.1
2018-01-01T05:42:51.441Z,96.6
2018-01-01T05:43:52.796Z,97.0
2018-01-01T05:44:54.152Z,96.3
2018-01-01T05:45:55.516Z,96.4
2018-01-01T05:46:56.864Z,97.0
2018-01-01T05:47:58.221Z,96.9
2018-01-01T05:48:59.579Z,96.9
2018-01-01T05:50:00.935Z,96.7
2018-01-01T05:51:02.299Z,96.1
2018-01-01T05:52:03.647Z,96.7
2018-01-01T05:53:05.010Z,97.5
2018-01-01T05:54:06.362Z,97.2
2018-01-01T05:55:07.713Z,96.6
2018-01-01T05:56:09.065Z,96.7
2018-01-01T05:57:10.420Z,96.0
2018-01-01T05:58:11.783Z,96.1
2018-01-01T05:59:13.136Z,96.4
2018-01-01T06:00:14.522Z,96.0
2018-01-01T06:01:15.874Z,95.6
2018-01-01T06:02:17.234Z,95.9
2018-01-01T06:03:18.586Z,96.5
2018-01-01T06:04:19.942Z,96.5
2018-01-01T06:05:21.306Z,97.7
2018-01-01T06:06:22.662Z,97.1
2018-01-01T06:07:24.020Z,97.0
2018-01-01T06:08:25.372Z,97.0
2018-01-01T06:09:26.731Z,97.5
2018-01-01T06:10:28.091Z,97.0
2018-01-01T06:11:29.453Z,96.8
2018-01-01T06:12:30.806Z,97.3
2018-01-01T06:13:32.164Z,97.9
2018-01-01T06:14:33.524Z,98.0
2018-01-01T06:15:34.876Z,96.6
2018-01-01T06:16:36.227Z,95.9
2018-01-01T06:17:37.583Z,95.5
2018-01-01T06:18:38.939Z,95.4
2018-01-01T06:19:40.293Z,94.7
2018-01-01T06:20:41.651Z,95.3
2018-01-01T06:21:43.014Z,94.5
2018-01-01T06:22:44.373Z,94.0
2018-01-01T06:23:45.724Z,93.8
2018-01-01T06:24:47.084Z,92.8
2018-01-01T06:25:48.437Z,92.6
2018-01-01T06:26:49.797Z,92.7
2018-01-01T06:27:51.153Z,92.4
2018-01-01T06:28:52.521Z,92.6
2018-01-01T06:29:53.875Z,92.0
2018-01-01T06:30:55.225Z,92.6
2018-01-01T06:31:56.586Z,92.7
2018-01-01T06:32:57.945Z,92.2
2018-01-01T06:33:59.299Z,92.4
2018-01-01T06:35:00.657Z,91.7
2018-01-01T06:36:02.543Z,92.0
2018-01-01T06:37:03.900Z,91.9
2018-01-01T06:38:05.247Z,92.2
2018-01-01T06:39:06.607Z,92.9
2018-01-01T06:40:07.974Z,92.1
2018-01-01T06:41:09.322Z,90.8
2018-01-01T06:42:10.690Z,90.3
2018-01-01T06:43:12.039Z,90.8
2018-01-01T06:44:13.389Z,90.9
2018-01-01T06:45:14.747Z,91.3
2018-01-01T06:46:16.096Z,91.1
2018-01-01T06:47:17.460Z,90.5
2018-01-01T06:48:18.845Z,89.9
2018-01-01T06:49:20.198Z,89.7
2018-01-01T06:50:21.547Z,89.0
2018-01-01T06:51:22.896Z,88.8
2018-01-01T06:52:24.253Z,89.0
2018-01-01T06:53:25.612Z,87.8
2018-01-01T06:54:26.972Z,87.8
2018-01-01T06:55:28.326Z,88.6
2018-01-01T06:56:29.687Z,88.0
2018-01-01T06:57:31.040Z,87.3
2018-01-01T06:58:32.393Z,87.8
2018-01-01T06:59:33.751Z,88.0
2018-01-01T07:00:35.108Z,87.8
2018-01-01T07:01:36.469Z,88.7
2018-01-01T07:02:37.834Z,88.6
2018-01-01T07:03:39.189Z,88.0
2018-01-01T07:04:40.542Z,88.2
2018-01-01T07:05:41.904Z,87.6
2018-01-01T07:06:43.259Z,88.3
2018-01-01T07:07:44.615Z,87.8
2018-01-01T07:08:45.977Z,88.8
2018-01-01T07:09:47.330Z,88.9
2018-01-01T07:10:48.687Z,88.9
2018-01-01T07:11:50.050Z,88.9
2018-01-01T07:12:51.407Z,89.0
2018-01-01T07:13:52.764Z,89.3
2018-01-01T07:14:54.146Z,89.4
2018-01-01T07:15:55.483Z,89.1
2018-01-01T07:16:56.840Z,88.8
2018-01-01T07:17:58.206Z,89.9
2018-01-01T07:18:59.563Z,90.1
2018-01-01T07:20:00.930Z,89.9
2018-01-01T07:21:02.299Z,89.4
2018-01-01T07:22:03.658Z,89.7
2018-01-01T07:23:05.015Z,90.0
2018-01-01T07:24:06.377Z,89.8
2018-01-01T07:25:07.727Z,90.1
2018-01-01T07:26:09.098Z,90.1
2018-01-01T07:27:10.450Z,89.9
2018-01-01T07:28:11.813Z,89.4
2018-01-01T07:29:13.169Z,89.3
2018-01-01T07:30:14.553Z,89.6
2018-01-01T07:31:15.916Z,89.8
2018-01-01T07:32:17.280Z,90.3
2018-01-01T07:33:18.637Z,90.5
2018-01-01T07:34:19.994Z,89.1
2018-01-01T07:35:21.349Z,88.7
2018-01-01T07:36:22.712Z,89.1
2018-01-01T07:37:24.072Z,89.6
2018-01-01T07:38:25.439Z,89.3
2018-01-01T07:39:26.806Z,88.9
2018-01-01T07:40:28.166Z,89.1
2018-01-01T07:41:29.525Z,89.4
2018-01-01T07:42:30.880Z,89.3
2018-01-01T07:43:32.246Z,89.4
2018-01-01T07:44:33.608Z,89.3
2018-01-01T07:45:34.971Z,89.2
2018-01-01T07:46:36.325Z,88.9
2018-01-01T07:47:37.680Z,88.9
2018-01-01T07:48:39.039Z,88.9
2018-01-01T07:49:40.403Z,90.1
2018-01-01T07:50:41.773Z,89.5
2018-01-01T07:51:43.139Z,88.9
2018-01-01T07:52:44.497Z,89.1
2018-01-01T07:53:45.871Z,88.7
2018-01-01T07:54:47.234Z,88.8
2018-01-01T07:55:48.588Z,89.3
2018-01-01T07:56:49.951Z,89.7
2018-01-01T07:57:51.307Z,89.3
2018-01-01T07:58:52.665Z,89.7
2018-01-01T07:59:54.035Z,89.9
2018-01-01T08:00:55.388Z,89.7
2018-01-01T08:01:56.755Z,89.3
2018-01-01T08:02:58.129Z,89.0
2018-01-01T08:03:59.482Z,89.2
2018-01-01T08:05:00.843Z,89.3
2018-01-01T08:06:02.201Z,89.3
2018-01-01T08:07:03.564Z,89.6
2018-01-01T08:08:04.928Z,89.3
2018-01-01T08:09:06.291Z,89.0
2018-01-01T08:10:07.673Z,89.5
2018-01-01T08:11:09.031Z,88.9
2018-01-01T08:12:10.397Z,88.5
2018-01-01T08:13:11.753Z,89.0
2018-01-01T08:14:13.115Z,89.5
2018-01-01T08:15:14.480Z,89.2
2018-01-01T08:16:15.843Z,89.0
2018-01-01T08:17:17.195Z,89.4
2018-01-01T08:18:18.591Z,89.3
2018-01-01T08:19:19.953Z,88.7
2018-01-01T08:20:21.314Z,88.9
2018-01-01T08:21:22.679Z,88.7
2018-01-01T08:22:24.061Z,87.6
2018-01-01T08:23:25.424Z,88.5
2018-01-01T08:24:26.786Z,88.9
2018-01-01T08:25:28.150Z,88.2
2018-01-01T08:26:29.515Z,88.3
2018-01-01T08:27:30.876Z,88.1
2018-01-01T08:28:32.247Z,88.7
2018-01-01T08:29:33.621Z,88.7
2018-01-01T08:30:34.990Z,88.0
2018-01-01T08:31:36.348Z,88.3
2018-01-01T08:32:37.711Z,88.4
2018-01-01T08:33:39.078Z,88.0
2018-01-01T08:34:40.444Z,88.2
2018-01-01T08:35:41.798Z,88.3
2018-01-01T08:36:43.164Z,88.6
2018-01-01T08:37:44.528Z,88.9
2018-01-01T08:38:45.885Z,87.8
2018-01-01T08:39:47.250Z,87.1
2018-01-01T08:40:48.616Z,87.8
2018-01-01T08:41:49.986Z,87.4
2018-01-01T08:42:51.352Z,86.8
2018-01-01T08:43:52.712Z,87.5
2018-01-01T08:44:54.081Z,87.7
2018-01-01T08:45:55.439Z,86.8
2018-01-01T08:46:56.804Z,85.8
2018-01-01T08:47:58.168Z,86.2
2018-01-01T08:48:59.534Z,85.8
2018-01-01T08:50:00.901Z,85.9
2018-01-01T08:51:02.267Z,86.4
2018-01-01T08:52:03.634Z,85.2
2018-01-01T08:53:04.997Z,85.5
2018-01-01T08:54:06.349Z,84.7
2018-01-01T08:55:07.714Z,84.8
2018-01-01T08:56:09.078Z,85.1
2018-01-01T08:57:10.443Z,85.4
2018-01-01T08:58:11.810Z,85.3
2018-01-01T08:59:13.207Z,85.3
2018-01-01T09:00:14.564Z,85.4
2018-01-01T09:01:15.935Z,85.5
2018-01-01T09:02:17.292Z,85.7
2018-01-01T09:03:18.650Z,86.7
2018-01-01T09:04:20.012Z,86.3
2018-01-01T09:05:21.380Z,86.3
2018-01-01T09:06:22.748Z,85.1
2018-01-01T09:07:24.108Z,85.5
2018-01-01T09:08:25.473Z,85.0
2018-01-01T09:09:26.833Z,85.8
2018-01-01T09:10:28.193Z,85.9
2018-01-01T09:11:29.557Z,86.0
2018-01-01T09:12:30.921Z,85.4
2018-01-01T09:13:32.284Z,85.2
2018-01-01T09:14:33.651Z,84.8
2018-01-01T09:15:35.006Z,84.9
2018-01-01T09:16:36.371Z,85.5
2018-01-01T09:17:37.742Z,84.9
2018-01-01T09:18:39.103Z,85.3
2018-01-01T09:19:41.126Z,85.3
2018-01-01T09:20:42.496Z,85.4
2018-01-01T09:21:43.867Z,85.0
2018-01-01T09:22:45.230Z,84.8
2018-01-01T09:23:46.600Z,84.4
2018-01-01T09:24:47.960Z,84.9
2018-01-01T09:25:49.327Z,84.9
2018-01-01T09:26:50.693Z,85.4
2018-01-01T09:27:52.058Z,85.5
2018-01-01T09:28:53.420Z,85.1
2018-01-01T09:29:54.788Z,85.5
2018-01-01T09:30:56.162Z,85.3
2018-01-01T09:31:57.511Z,84.9
2018-01-01T09:32:58.876Z,85.1
2018-01-01T09:34:00.245Z,85.2
2018-01-01T09:35:01.606Z,85.3
2018-01-01T09:36:02.971Z,84.8
2018-01-01T09:37:04.339Z,85.4
2018-01-01T09:38:05.696Z,85.1
2018-01-01T09:39:07.061Z,85.4
2018-01-01T09:40:08.431Z,84.6
2018-01-01T09:41:09.796Z,85.1
2018-01-01T09:42:11.158Z,84.1
2018-01-01T09:43:12.536Z,84.5
2018-01-01T09:44:13.914Z,84.5
2018-01-01T09:45:15.286Z,83.9
2018-01-01T09:46:16.667Z,84.4
2018-01-01T09:47:18.095Z,84.1
2018-01-01T09:48:19.489Z,84.5
2018-01-01T09:49:20.874Z,84.5
2018-01-01T09:50:22.326Z,84.7
2018-01-01T09:51:23.723Z,84.5
2018-01-01T09:52:25.099Z,85.1
2018-01-01T09:53:26.506Z,84.4
2018-01-01T09:54:27.965Z,84.1
2018-01-01T09:55:29.376Z,84.4
2018-01-01T09:56:30.856Z,84.7
2018-01-01T09:57:32.272Z,84.7
2018-01-01T09:58:33.683Z,84.0
2018-01-01T09:59:35.156Z,83.9
2018-01-01T10:00:36.623Z,83.7
2018-01-01T10:01:38.025Z,84.0
2018-01-01T10:02:39.469Z,84.1
2018-01-01T10:03:40.906Z,83.8
2018-01-01T10:04:42.328Z,83.5
2018-01-01T10:05:43.765Z,83.6
2018-01-01T10:06:45.935Z,82.9
2018-01-01T10:07:47.302Z,82.6
2018-01-01T10:08:48.696Z,83.2
2018-01-01T10:09:50.095Z,83.0
2018-01-01T10:10:51.519Z,83.2
2018-01-01T10:11:52.932Z,82.3
2018-01-01T10:12:54.371Z,82.4
2018-01-01T10:13:55.787Z,82.5
2018-01-01T10:14:57.205Z,82.6
2018-01-01T10:15:58.577Z,81.2
2018-01-01T10:16:59.983Z,81.4
2018-01-01T10:18:01.444Z,81.5
2018-01-01T10:19:02.842Z,81.4
2018-01-01T10:20:04.275Z,81.1
2018-01-01T10:21:05.719Z,81.0
2018-01-01T10:22:07.149Z,81.1
2018-01-01T10:23:08.611Z,81.0
2018-01-01T10:24:10.069Z,81.0
2018-01-01T10:25:11.553Z,80.9
2018-01-01T10:26:12.996Z,79.9
2018-01-01T10:27:14.408Z,80.7
2018-01-01T10:28:15.831Z,80.1
2018-01-01T10:29:17.218Z,80.3
2018-01-01T10:30:18.657Z,80.0
2018-01-01T10:31:20.035Z,80.7
2018-01-01T10:32:21.472Z,81.0
2018-01-01T10:33:22.834Z,81.0
2018-01-01T10:34:24.248Z,81.4
2018-01-01T10:35:25.620Z,80.6
2018-01-01T10:36:27.052Z,80.7
2018-01-01T10:37:28.418Z,80.2
2018-01-01T10:38:29.754Z,79.7
2018-01-01T10:39:31.124Z,79.7
2018-01-01T10:40:32.501Z,80.3
2018-01-01T10:41:33.865Z,80.2
2018-01-01T10:42:35.236Z,79.9
2018-01-01T10:43:36.607Z,79.8
2018-01-01T10:44:37.977Z,79.8
2018-01-01T10:45:39.348Z,79.8
2018-01-01T10:46:40.714Z,80.0
2018-01-01T10:47:42.090Z,80.0
2018-01-01T10:48:43.497Z,80.1
2018-01-01T10:49:44.836Z,79.9
2018-01-01T10:50:46.842Z,79.0
2018-01-01T10:51:48.207Z,79.5
2018-01-01T10:52:49.576Z,79.1
2018-01-01T10:53:50.945Z,79.1
2018-01-01T10:54:52.301Z,80.6
2018-01-01T10:55:53.675Z,81.2
2018-01-01T10:56:55.072Z,81.1
2018-01-01T10:57:56.436Z,81.4
2018-01-01T10:58:57.800Z,81.3
2018-01-01T10:59:59.175Z,81.0
2018-01-01T11:01:00.543Z,82.3
2018-01-01T11:02:01.909Z,81.4
2018-01-01T11:03:03.275Z,81.3
2018-01-01T11:04:04.646Z,80.5
2018-01-01T11:05:06.017Z,78.3
2018-01-01T11:06:07.384Z,77.4
2018-01-01T11:07:08.749Z,78.0
2018-01-01T11:08:10.112Z,78.4
2018-01-01T11:09:11.480Z,77.3
2018-01-01T11:10:12.858Z,77.6
2018-01-01T11:11:14.232Z,77.0
2018-01-01T11:12:15.598Z,77.9
2018-01-01T11:13:16.969Z,78.5
2018-01-01T11:14:18.335Z,79.5
2018-01-01T11:15:19.705Z,78.3
2018-01-01T11:16:21.070Z,77.3
2018-01-01T11:17:22.432Z,78.3
2018-01-01T11:18:23.804Z,78.9
2018-01-01T11:19:25.162Z,77.4
2018-01-01T11:20:26.551Z,77.7
2018-01-01T11:21:27.926Z,77.9
2018-01-01T11:22:29.293Z,77.3
2018-01-01T11:23:30.655Z,77.9
2018-01-01T11:24:32.952Z,78.1
2018-01-01T11:25:34.321Z,78.1
2018-01-01T11:26:35.693Z,78.4
2018-01-01T11:27:37.060Z,77.9
2018-01-01T11:28:38.424Z,77.9
2018-01-01T11:29:39.800Z,77.5
2018-01-01T11:30:41.175Z,77.2
2018-01-01T11:31:42.538Z,77.2
2018-01-01T11:32:43.901Z,76.6
2018-01-01T11:33:45.276Z,77.2
2018-01-01T11:34:46.695Z,78.2
2018-01-01T11:35:48.066Z,78.2
2018-01-01T11:36:49.433Z,78.0
2018-01-01T11:37:50.799Z,77.6
2018-01-01T11:38:52.158Z,78.0
2018-01-01T11:39:53.540Z,77.9
2018-01-01T11:40:54.908Z,78.2
2018-01-01T11:41:56.280Z,78.3
2018-01-01T11:42:57.661Z,79.1
2018-01-01T11:43:59.029Z,78.6
2018-01-01T11:45:00.398Z,78.6
2018-01-01T11:46:01.768Z,78.5
2018-01-01T11:47:03.144Z,78.4
2018-01-01T11:48:04.507Z,77.9
2018-01-01T11:49:05.972Z,77.9
2018-01-01T11:50:07.356Z,78.1
2018-01-01T11:51:08.720Z,78.1
2018-01-01T11:52:10.090Z,78.1
2018-01-01T11:53:11.462Z,77.9
2018-01-01T11:54:12.831Z,78.0
2018-01-01T11:55:14.197Z,77.9
2018-01-01T11:56:15.576Z,78.1
2018-01-01T11:57:16.950Z,77.5
2018-01-01T11:58:18.321Z,76.0
2018-01-01T11:59:19.696Z,74.8
2018-01-01T12:00:21.060Z,75.3
2018-01-01T12:01:22.429Z,74.8
2018-01-01T12:02:24.459Z,75.9
2018-01-01T12:03:25.834Z,76.0
2018-01-01T12:04:27.218Z,75.6
2018-01-01T12:05:28.600Z,75.0
2018-01-01T12:06:29.969Z,74.7
2018-01-01T12:07:31.348Z,75.1
2018-01-01T12:08:32.709Z,74.6
2018-01-01T12:09:34.088Z,74.3
2018-01-01T12:10:35.471Z,74.2
2018-01-01T12:11:36.836Z,73.2
2018-01-01T12:12:38.260Z,71.7
2018-01-01T12:13:39.586Z,72.7
2018-01-01T12:14:40.966Z,73.3
2018-01-01T12:15:42.389Z,73.2
2018-01-01T12:16:43.706Z,73.4
2018-01-01T12:17:45.080Z,72.3
2018-01-01T12:18:46.449Z,72.6
2018-01-01T12:19:47.814Z,73.4
2018-01-01T12:20:49.183Z,73.1
2018-01-01T12:21:50.560Z,72.2
2018-01-01T12:22:51.934Z,72.0
2018-01-01T12:23:53.312Z,71.6
2018-01-01T12:24:54.678Z,72.6
2018-01-01T12:25:56.048Z,72.3
2018-01-01T12:26:57.420Z,72.7
2018-01-01T12:27:58.795Z,73.3
2018-01-01T12:29:00.156Z,73.0
2018-01-01T12:30:01.534Z,73.1
2018-01-01T12:31:02.909Z,72.3
2018-01-01T12:32:04.279Z,72.8
2018-01-01T12:33:05.649Z,73.0
2018-01-01T12:34:07.018Z,73.8
2018-01-01T12:35:08.397Z,74.5
2018-01-01T12:36:09.761Z,73.9
2018-01-01T12:37:11.134Z,73.8
2018-01-01T12:38:12.516Z,74.0
2018-01-01T12:39:13.900Z,73.8
2018-01-01T12:40:15.260Z,74.2
2018-01-01T12:41:16.625Z,74.1
2018-01-01T12:42:17.987Z,73.3
2018-01-01T12:43:19.359Z,73.5
2018-01-01T12:44:20.743Z,73.1
2018-01-01T12:45:22.122Z,73.7
2018-01-01T12:46:23.494Z,73.7
2018-01-01T12:47:24.862Z,73.3
2018-01-01T12:48:26.238Z,73.1
2018-01-01T12:49:27.600Z,73.3
2018-01-01T12:50:28.967Z,73.0
2018-01-01T12:51:30.347Z,73.1
2018-01-01T12:52:32.691Z,73.3
2018-01-01T12:53:34.061Z,73.8
2018-01-01T12:54:35.426Z,73.5
2018-01-01T12:55:36.787Z,74.2
2018-01-01T12:56:38.155Z,73.8
2018-01-01T12:57:39.525Z,73.9
2018-01-01T12:58:40.898Z,73.3
2018-01-01T12:59:42.273Z,73.6
2018-01-01T13:00:43.658Z,73.5
2018-01-01T13:01:45.033Z,73.4
2018-01-01T13:02:46.424Z,73.0
2018-01-01T13:03:47.796Z,73.0
2018-01-01T13:04:49.162Z,73.3
2018-01-01T13:05:50.531Z,74.0
2018-01-01T13:06:51.896Z,74.1
2018-01-01T13:07:53.268Z,74.2
2018-01-01T13:08:54.899Z,73.3
2018-01-01T13:09:56.266Z,73.1
2018-01-01T13:10:57.631Z,73.1
2018-01-01T13:11:59.000Z,72.9
2018-01-01T13:13:00.371Z,73.0
2018-01-01T13:14:01.736Z,73.7
2018-01-01T13:15:03.104Z,73.5
2018-01-01T13:16:04.508Z,73.4
2018-01-01T13:17:05.869Z,74.2
2018-01-01T13:18:07.252Z,74.0
2018-01-01T13:19:08.631Z,74.3
2018-01-01T13:20:10.013Z,73.8
2018-01-01T13:21:11.383Z,73.5
2018-01-01T13:22:12.751Z,73.7
2018-01-01T13:23:14.127Z,74.1
2018-01-01T13:24:15.492Z,74.0
2018-01-01T13:25:16.860Z,74.0
2018-01-01T13:26:18.235Z,74.3
2018-01-01T13:27:19.600Z,74.4
2018-01-01T13:28:20.975Z,74.3
2018-01-01T13:29:22.348Z,74.3
2018-01-01T13:30:23.717Z,74.0
2018-01-01T13:31:25.083Z,74.9
2018-01-01T13:32:26.464Z,75.2
2018-01-01T13:33:27.831Z,74.3
2018-01-01T13:34:29.195Z,74.4
2018-01-01T13:35:30.561Z,73.3
2018-01-01T13:36:31.928Z,74.0